createdAt,value
2018-09-05T00:00:09.541Z,99.90
2018-09-05T00:02:37.661Z,99.90
2018-09-05T00:05:05.819Z,99.90
2018-09-05T00:07:33.935Z,99.90
2018-09-05T00:10:02.070Z,99.90
2018-09-05T00:12:30.178Z,99.90
2018-09-05T00:14:58.336Z,99.90
2018-09-05T00:17:26.517Z,99.90
2018-09-05T00:19:54.656Z,99.90
2018-09-05T00:22:22.778Z,99.90
2018-09-05T00:24:50.914Z,99.90
2018-09-05T00:29:53.666Z,99.90
2018-09-05T00:32:21.789Z,99.90
2018-09-05T00:34:50.263Z,99.90
2018-09-05T00:37:18.402Z,99.90
2018-09-05T00:39:46.548Z,99.90
2018-09-05T00:42:14.674Z,99.90
2018-09-05T00:44:42.864Z,99.90
2018-09-05T00:47:11.098Z,99.90
2018-09-05T00:49:39.250Z,99.90
2018-09-05T00:52:07.390Z,99.90
2018-09-05T00:54:35.534Z,99.90
2018-09-05T00:57:03.705Z,99.90
2018-09-05T00:59:31.860Z,99.90
2018-09-05T01:02:00.006Z,99.90
2018-09-05T01:04:28.147Z,99.90
2018-09-05T01:06:56.283Z,99.90
2018-09-05T01:09:24.439Z,99.90
2018-09-05T01:11:53.030Z,99.90
2018-09-05T01:14:21.175Z,99.90
2018-09-05T01:16:49.317Z,99.90
2018-09-05T01:19:17.463Z,99.90
2018-09-05T01:21:45.613Z,99.90
2018-09-05T01:24:13.795Z,99.90
2018-09-05T01:26:41.903Z,99.90
2018-09-05T01:29:10.056Z,99.90
2018-09-05T01:31:38.199Z,99.90
2018-09-05T01:34:06.350Z,99.90
2018-09-05T01:36:34.503Z,99.90
2018-09-05T01:39:02.650Z,99.90
2018-09-05T01:41:30.831Z,99.90
2018-09-05T01:43:58.986Z,99.90
2018-09-05T01:46:27.121Z,99.90
2018-09-05T01:48:55.248Z,99.90
2018-09-05T01:51:23.402Z,99.90
2018-09-05T01:53:51.538Z,99.90
2018-09-05T01:56:19.691Z,99.90
2018-09-05T01:58:47.811Z,99.90
2018-09-05T02:01:15.955Z,99.90
2018-09-05T02:03:44.099Z,99.90
2018-09-05T02:06:12.268Z,99.90
2018-09-05T02:08:40.407Z,99.90
2018-09-05T02:11:08.542Z,99.90
2018-09-05T02:13:36.683Z,99.90
2018-09-05T02:16:04.845Z,99.90
2018-09-05T02:18:32.987Z,99.90
2018-09-05T02:21:01.144Z,99.90
2018-09-05T02:23:29.270Z,99.90
2018-09-05T02:25:57.423Z,99.90
2018-09-05T02:28:25.565Z,99.90
2018-09-05T02:30:53.709Z,99.90
2018-09-05T02:33:21.923Z,99.90
2018-09-05T02:35:50.081Z,99.90
2018-09-05T02:38:18.210Z,99.90
2018-09-05T02:40:46.410Z,99.90
2018-09-05T02:43:18.761Z,99.90
2018-09-05T02:45:46.906Z,99.90
2018-09-05T02:48:15.043Z,99.90
2018-09-05T02:50:43.195Z,99.90
2018-09-05T02:53:11.412Z,99.90
2018-09-05T02:55:45.080Z,99.90
2018-09-05T02:58:14.307Z,99.90
2018-09-05T03:00:42.459Z,99.90
2018-09-05T03:03:10.584Z,99.90
2018-09-05T03:05:38.739Z,99.90
2018-09-05T03:08:06.874Z,99.90
2018-09-05T03:10:35.035Z,99.90
2018-09-05T03:13:03.166Z,99.90
2018-09-05T03:15:31.310Z,99.90
2018-09-05T03:17:59.579Z,99.90
2018-09-05T03:20:27.728Z,99.90
2018-09-05T03:22:55.855Z,99.90
2018-09-05T03:25:24.016Z,99.90
2018-09-05T03:27:52.164Z,99.90
2018-09-05T03:30:20.343Z,99.90
2018-09-05T03:32:48.573Z,99.90
2018-09-05T03:35:16.663Z,99.90
2018-09-05T03:37:44.799Z,99.90
2018-09-05T03:40:12.963Z,99.90
2018-09-05T03:42:41.099Z,99.90
2018-09-05T03:45:09.230Z,99.90
2018-09-05T03:47:37.379Z,99.90
2018-09-05T03:50:06.514Z,99.90
2018-09-05T03:52:34.698Z,99.90
2018-09-05T03:55:02.846Z,99.90
2018-09-05T03:57:30.998Z,99.90
2018-09-05T03:59:59.146Z,99.90
2018-09-05T04:02:27.318Z,99.90
2018-09-05T04:04:55.471Z,99.90
2018-09-05T04:07:23.623Z,99.90
2018-09-05T04:09:51.769Z,99.90
2018-09-05T04:12:19.915Z,99.90
2018-09-05T04:14:48.059Z,99.90
2018-09-05T04:17:16.204Z,99.90
2018-09-05T04:19:44.335Z,99.90
2018-09-05T04:22:12.544Z,99.90
2018-09-05T04:24:40.653Z,99.90
2018-09-05T04:27:08.906Z,99.90
2018-09-05T04:29:37.126Z,99.90
2018-09-05T04:32:05.188Z,99.90
2018-09-05T04:34:33.324Z,99.90
2018-09-05T04:37:01.503Z,99.90
2018-09-05T04:39:29.648Z,99.90
2018-09-05T04:41:57.863Z,99.90
2018-09-05T04:44:25.990Z,99.90
2018-09-05T04:46:54.133Z,99.90
2018-09-05T04:49:22.256Z,99.90
2018-09-05T04:51:50.454Z,99.90
2018-09-05T04:54:18.606Z,99.90
2018-09-05T04:56:46.772Z,99.90
2018-09-05T04:59:14.936Z,99.90
2018-09-05T05:01:43.103Z,99.90
2018-09-05T05:04:11.280Z,99.90
2018-09-05T05:06:39.514Z,99.90
2018-09-05T05:09:09.203Z,99.90
2018-09-05T05:11:37.422Z,99.90
2018-09-05T05:14:05.596Z,99.90
2018-09-05T05:16:33.740Z,99.90
2018-09-05T05:19:01.880Z,99.90
2018-09-05T05:21:30.044Z,99.90
2018-09-05T05:23:58.196Z,99.90
2018-09-05T05:26:26.358Z,99.90
2018-09-05T05:28:54.515Z,99.90
2018-09-05T05:31:22.685Z,99.90
2018-09-05T05:33:50.991Z,99.90
2018-09-05T05:36:19.186Z,99.90
2018-09-05T05:38:47.581Z,99.90
2018-09-05T05:41:16.037Z,99.90
2018-09-05T05:43:44.175Z,99.90
2018-09-05T05:46:12.319Z,99.90
2018-09-05T05:48:40.460Z,99.90
2018-09-05T05:51:08.590Z,99.90
2018-09-05T05:53:36.760Z,99.90
2018-09-05T05:56:04.915Z,99.90
2018-09-05T05:58:33.047Z,99.90
2018-09-05T06:01:01.276Z,99.90
2018-09-05T06:03:29.387Z,99.90
2018-09-05T06:05:57.540Z,99.90
2018-09-05T06:08:25.710Z,99.90
2018-09-05T06:10:53.844Z,99.90
2018-09-05T06:13:21.992Z,99.90
2018-09-05T06:15:50.134Z,99.90
2018-09-05T06:18:18.293Z,99.90
2018-09-05T06:20:46.427Z,99.90
2018-09-05T06:23:14.579Z,99.90
2018-09-05T06:25:42.779Z,99.90
2018-09-05T06:28:12.163Z,99.90
2018-09-05T06:30:40.429Z,99.90
2018-09-05T06:33:08.451Z,99.90
2018-09-05T06:35:36.605Z,99.90
2018-09-05T06:38:04.735Z,99.90
2018-09-05T06:40:32.875Z,99.90
2018-09-05T06:43:01.034Z,99.90
2018-09-05T06:45:29.175Z,99.90
2018-09-05T06:47:57.318Z,99.90
2018-09-05T06:50:25.458Z,99.90
2018-09-05T06:52:53.603Z,99.90
2018-09-05T06:55:21.747Z,99.90
2018-09-05T06:57:49.895Z,99.90
2018-09-05T07:00:18.784Z,99.90
2018-09-05T07:02:47.076Z,99.90
2018-09-05T07:05:15.434Z,99.90
2018-09-05T07:07:43.593Z,99.90
2018-09-05T07:10:11.723Z,99.90
2018-09-05T07:12:39.881Z,99.90
2018-09-05T07:15:08.070Z,99.90
2018-09-05T07:17:36.241Z,99.90
2018-09-05T07:20:04.427Z,99.90
2018-09-05T07:22:32.588Z,99.90
2018-09-05T07:25:00.810Z,99.90
2018-09-05T07:27:28.948Z,99.90
2018-09-05T07:29:57.053Z,99.90
2018-09-05T07:32:25.188Z,99.90
2018-09-05T07:35:00.099Z,99.90
2018-09-05T07:37:28.228Z,99.90
2018-09-05T07:39:56.375Z,99.90
2018-09-05T07:42:24.876Z,99.90
2018-09-05T07:44:53.029Z,99.90
2018-09-05T07:47:21.199Z,99.90
2018-09-05T07:49:49.352Z,99.90
2018-09-05T07:52:17.518Z,99.90
2018-09-05T07:54:45.671Z,99.90
2018-09-05T07:57:13.837Z,99.90
2018-09-05T07:59:41.956Z,99.90
2018-09-05T08:02:10.099Z,99.90
2018-09-05T08:04:38.255Z,99.90
2018-09-05T08:07:06.615Z,99.90
2018-09-05T08:09:34.766Z,99.90
2018-09-05T08:12:03.047Z,99.90
2018-09-05T08:14:31.196Z,99.90
2018-09-05T08:16:59.340Z,99.90
2018-09-05T08:19:27.490Z,99.90
2018-09-05T08:21:55.728Z,99.90
2018-09-05T08:24:23.978Z,99.90
2018-09-05T08:26:52.210Z,99.90
2018-09-05T08:29:20.447Z,99.90
2018-09-05T08:31:48.543Z,99.90
2018-09-05T08:34:16.687Z,99.90
2018-09-05T08:36:45.045Z,99.90
2018-09-05T08:39:14.183Z,99.90
2018-09-05T08:41:42.412Z,99.90
2018-09-05T08:44:10.748Z,99.90
2018-09-05T08:46:38.683Z,99.90
2018-09-05T08:49:06.949Z,99.90
2018-09-05T08:51:35.080Z,99.90
2018-09-05T08:54:03.241Z,99.90
2018-09-05T08:56:31.398Z,99.90
2018-09-05T08:58:59.566Z,99.90
2018-09-05T09:01:27.694Z,99.90
2018-09-05T09:03:55.867Z,99.90
2018-09-05T09:06:24.176Z,99.90
2018-09-05T09:08:52.325Z,99.90
2018-09-05T09:11:20.467Z,99.90
2018-09-05T09:13:48.608Z,99.90
2018-09-05T09:16:16.784Z,99.90
2018-09-05T09:18:44.962Z,99.90
2018-09-05T09:21:13.108Z,99.90
2018-09-05T09:23:41.251Z,99.90
2018-09-05T09:26:09.968Z,99.90
2018-09-05T09:28:38.191Z,99.90
2018-09-05T09:31:06.472Z,99.90
2018-09-05T09:33:34.614Z,99.90
2018-09-05T09:36:02.758Z,99.90
2018-09-05T09:38:30.898Z,99.90
2018-09-05T09:40:59.365Z,99.90
2018-09-05T09:43:27.508Z,99.90
2018-09-05T09:45:55.657Z,99.90
2018-09-05T09:48:23.798Z,99.80
2018-09-05T09:50:51.950Z,99.90
2018-09-05T09:53:20.099Z,98.80
2018-09-05T09:55:48.245Z,99.90
2018-09-05T09:58:16.387Z,98.40
2018-09-05T10:01:16.391Z,97.90
2018-09-05T10:03:49.960Z,98.40
2018-09-05T10:06:20.078Z,96.80
2018-09-05T10:09:54.485Z,97.60
2018-09-05T10:12:27.854Z,97.30
2018-09-05T10:16:05.085Z,97.50
2018-09-05T10:18:35.599Z,97.10
2018-09-05T10:21:03.840Z,96.80
2018-09-05T10:23:31.919Z,97.80
2018-09-05T10:26:00.073Z,97.10
2018-09-05T10:28:28.216Z,96.90
2018-09-05T10:30:56.364Z,97.00
2018-09-05T10:33:24.494Z,97.50
2018-09-05T10:35:52.642Z,97.70
2018-09-05T10:38:20.783Z,95.70
2018-09-05T10:40:48.923Z,95.20
2018-09-05T10:43:17.051Z,95.90
2018-09-05T10:45:45.194Z,96.20
2018-09-05T10:48:14.342Z,95.80
2018-09-05T10:50:42.726Z,96.50
2018-09-05T10:53:10.875Z,96.70
2018-09-05T10:55:39.015Z,94.40
2018-09-05T10:58:07.175Z,93.80
2018-09-05T11:00:41.703Z,94.80
2018-09-05T11:03:09.899Z,93.60
2018-09-05T11:08:13.627Z,95.10
2018-09-05T11:10:41.830Z,92.90
2018-09-05T11:13:09.921Z,92.90
2018-09-05T11:15:38.040Z,92.10
2018-09-05T11:18:06.591Z,92.40
2018-09-05T11:20:34.730Z,91.90
2018-09-05T11:23:02.874Z,92.60
2018-09-05T11:25:31.003Z,92.10
2018-09-05T11:27:59.165Z,91.90
2018-09-05T11:30:27.299Z,91.60
2018-09-05T11:32:55.439Z,90.90
2018-09-05T11:35:23.610Z,90.30
2018-09-05T11:37:51.813Z,91.00
2018-09-05T11:40:19.955Z,90.40
2018-09-05T11:42:48.096Z,90.20
2018-09-05T11:45:16.586Z,89.40
2018-09-05T11:47:44.725Z,88.70
2018-09-05T11:50:12.846Z,90.30
2018-09-05T11:52:41.007Z,89.10
2018-09-05T11:55:09.131Z,88.40
2018-09-05T11:57:37.302Z,89.30
2018-09-05T12:00:05.438Z,90.20
2018-09-05T12:02:33.578Z,90.50
2018-09-05T12:05:01.806Z,87.80
2018-09-05T12:07:29.871Z,86.30
2018-09-05T12:09:58.534Z,87.70
2018-09-05T12:12:27.098Z,86.00
2018-09-05T12:14:55.230Z,86.00
2018-09-05T12:17:23.388Z,85.20
2018-09-05T12:19:51.514Z,85.40
2018-09-05T12:22:19.660Z,83.60
2018-09-05T12:24:47.795Z,81.50
2018-09-05T12:27:15.954Z,82.90
2018-09-05T12:29:44.187Z,82.00
2018-09-05T12:32:12.315Z,83.90
2018-09-05T12:34:40.443Z,83.80
2018-09-05T12:37:08.582Z,83.60
2018-09-05T12:39:36.712Z,82.50
2018-09-05T12:42:04.868Z,83.50
2018-09-05T12:44:33.037Z,79.40
2018-09-05T12:47:01.155Z,78.80
2018-09-05T12:49:29.303Z,77.50
2018-09-05T12:51:57.438Z,79.70
2018-09-05T12:54:25.572Z,78.60
2018-09-05T12:56:53.723Z,79.60
2018-09-05T12:59:21.915Z,77.60
2018-09-05T13:01:49.995Z,77.20
2018-09-05T13:04:18.134Z,74.60
2018-09-05T13:06:46.279Z,75.90
2018-09-05T13:09:14.722Z,75.80
2018-09-05T13:11:43.190Z,76.70
2018-09-05T13:14:11.330Z,75.90
2018-09-05T13:16:39.575Z,77.50
2018-09-05T13:19:07.746Z,73.30
2018-09-05T13:21:35.912Z,73.00
2018-09-05T13:24:04.106Z,74.50
2018-09-05T13:26:32.235Z,76.80
2018-09-05T13:29:00.479Z,78.20
2018-09-05T13:31:28.603Z,76.00
2018-09-05T13:33:57.176Z,76.40
2018-09-05T13:36:25.303Z,73.90
2018-09-05T13:38:53.450Z,74.80
2018-09-05T13:41:21.571Z,72.70
2018-09-05T13:43:49.703Z,72.40
2018-09-05T13:46:17.855Z,74.90
2018-09-05T13:48:45.999Z,73.60
2018-09-05T13:51:14.396Z,73.50
2018-09-05T13:53:42.776Z,72.90
2018-09-05T13:56:10.913Z,71.90
2018-09-05T13:58:39.110Z,71.20
2018-09-05T14:01:07.255Z,73.20
2018-09-05T14:03:35.401Z,69.90
2018-09-05T14:06:03.562Z,71.50
2018-09-05T14:08:31.706Z,71.90
2018-09-05T14:10:59.835Z,71.40
2018-09-05T14:13:28.048Z,69.80
2018-09-05T14:15:56.170Z,72.10
2018-09-05T14:18:24.324Z,71.40
2018-09-05T14:20:52.450Z,70.80
2018-09-05T14:23:20.598Z,71.90
2018-09-05T14:25:48.722Z,69.60
2018-09-05T14:28:16.878Z,71.40
2018-09-05T14:30:45.004Z,71.20
2018-09-05T14:33:13.437Z,70.00
2018-09-05T14:35:41.561Z,71.60
2018-09-05T14:38:09.698Z,72.50
2018-09-05T14:40:37.842Z,70.20
2018-09-05T14:43:06.221Z,70.40
2018-09-05T14:45:34.361Z,69.30
2018-09-05T14:48:02.492Z,69.00
2018-09-05T14:50:30.626Z,67.60
2018-09-05T14:52:59.007Z,68.10
2018-09-05T14:55:27.151Z,67.40
2018-09-05T14:57:55.292Z,68.90
2018-09-05T15:00:23.468Z,67.90
2018-09-05T15:02:51.599Z,69.80
2018-09-05T15:05:19.769Z,68.90
2018-09-05T15:07:49.437Z,69.70
2018-09-05T15:10:17.928Z,71.00
2018-09-05T15:12:46.279Z,71.20
2018-09-05T15:15:14.815Z,70.20
2018-09-05T15:17:43.051Z,70.00
2018-09-05T15:20:11.322Z,70.90
2018-09-05T15:22:40.096Z,71.30
2018-09-05T15:25:08.261Z,69.90
2018-09-05T15:27:36.394Z,71.30
2018-09-05T15:30:04.594Z,71.90
2018-09-05T15:32:32.712Z,71.40
2018-09-05T15:35:00.847Z,71.10
2018-09-05T15:37:28.974Z,70.50
2018-09-05T15:39:57.130Z,69.00
2018-09-05T15:42:25.260Z,70.00
2018-09-05T15:44:53.396Z,67.70
2018-09-05T15:47:21.516Z,69.80
2018-09-05T15:49:49.658Z,69.30
2018-09-05T15:52:17.794Z,71.90
2018-09-05T15:54:45.935Z,70.60
2018-09-05T15:57:14.062Z,70.20
2018-09-05T15:59:42.209Z,72.40
2018-09-05T16:02:10.347Z,70.30
2018-09-05T16:04:38.490Z,69.60
2018-09-05T16:07:07.407Z,69.30
2018-09-05T16:09:35.603Z,70.00
2018-09-05T16:12:03.746Z,69.10
2018-09-05T16:14:31.906Z,70.50
2018-09-05T16:17:00.096Z,69.50
2018-09-05T16:19:28.242Z,69.10
2018-09-05T16:21:56.440Z,69.90
2018-09-05T16:24:24.518Z,71.10
2018-09-05T16:26:53.127Z,72.30
2018-09-05T16:29:21.278Z,74.10
2018-09-05T16:31:49.402Z,73.70
2018-09-05T16:34:17.958Z,74.40
2018-09-05T16:36:46.082Z,74.80
2018-09-05T16:39:14.214Z,73.90
2018-09-05T16:41:42.353Z,75.50
2018-09-05T16:44:11.058Z,74.50
2018-09-05T16:46:40.048Z,75.30
2018-09-05T16:49:08.257Z,75.70
2018-09-05T16:51:36.395Z,76.00
2018-09-05T16:54:04.534Z,76.40
2018-09-05T16:56:33.646Z,75.10
2018-09-05T17:01:36.403Z,75.70
2018-09-05T17:04:04.568Z,76.10
2018-09-05T17:06:32.825Z,77.20
2018-09-05T17:09:00.990Z,76.60
2018-09-05T17:11:29.188Z,78.80
2018-09-05T17:13:57.374Z,78.10
2018-09-05T17:16:25.523Z,79.00
2018-09-05T17:18:53.818Z,79.60
2018-09-05T17:21:22.044Z,79.80
2018-09-05T17:23:50.261Z,80.20
2018-09-05T17:26:18.491Z,80.30
2018-09-05T17:28:46.676Z,79.30
2018-09-05T17:31:14.804Z,79.00
2018-09-05T17:33:43.007Z,79.60
2018-09-05T17:36:11.346Z,79.90
2018-09-05T17:38:39.579Z,81.60
2018-09-05T17:41:07.812Z,82.30
2018-09-05T17:43:35.955Z,82.10
2018-09-05T17:46:04.102Z,82.70
2018-09-05T17:48:32.234Z,84.10
2018-09-05T17:51:00.378Z,86.70
2018-09-05T17:53:28.573Z,83.90
2018-09-05T17:55:56.682Z,85.50
2018-09-05T17:58:24.843Z,85.60
2018-09-05T18:00:53.020Z,89.00
2018-09-05T18:03:21.439Z,90.80
2018-09-05T18:05:56.406Z,92.50
2018-09-05T18:08:24.532Z,92.10
2018-09-05T18:10:52.715Z,91.10
2018-09-05T18:13:20.846Z,90.70
2018-09-05T18:15:49.119Z,91.30
2018-09-05T18:18:17.254Z,92.10
2018-09-05T18:20:45.392Z,94.60
2018-09-05T18:23:13.567Z,95.10
2018-09-05T18:25:41.756Z,92.30
2018-09-05T18:28:09.899Z,93.70
2018-09-05T18:30:44.752Z,92.40
2018-09-05T18:33:12.895Z,91.50
2018-09-05T18:35:41.127Z,91.60
2018-09-05T18:38:09.336Z,92.00
2018-09-05T18:40:37.623Z,95.10
2018-09-05T18:43:05.810Z,94.10
2018-09-05T18:45:33.937Z,94.10
2018-09-05T18:48:02.090Z,94.00
2018-09-05T18:50:30.235Z,94.10
2018-09-05T18:53:03.754Z,95.10
2018-09-05T18:55:32.088Z,94.40
2018-09-05T18:58:00.251Z,95.70
2018-09-05T19:00:28.400Z,94.10
2018-09-05T19:02:56.563Z,94.10
2018-09-05T19:05:24.989Z,94.40
2018-09-05T19:07:53.126Z,93.10
2018-09-05T19:10:21.308Z,93.10
2018-09-05T19:12:49.471Z,92.70
2018-09-05T19:15:17.614Z,92.70
2018-09-05T19:17:45.750Z,92.20
2018-09-05T19:20:13.877Z,92.90
2018-09-05T19:22:42.035Z,92.50
2018-09-05T19:25:10.146Z,93.20
2018-09-05T19:27:38.279Z,92.90
2018-09-05T19:30:06.419Z,92.70
2018-09-05T19:32:34.546Z,92.40
2018-09-05T19:35:02.691Z,92.40
2018-09-05T19:37:30.879Z,92.40
2018-09-05T19:39:59.028Z,92.90
2018-09-05T19:42:27.191Z,93.30
2018-09-05T19:44:55.315Z,93.30
2018-09-05T19:47:24.272Z,93.60
2018-09-05T19:49:52.440Z,93.90
2018-09-05T19:52:20.680Z,94.70
2018-09-05T19:54:48.821Z,95.10
2018-09-05T19:57:16.966Z,93.50
2018-09-05T19:59:45.096Z,95.00
2018-09-05T20:02:13.258Z,95.40
2018-09-05T20:04:41.398Z,96.50
2018-09-05T20:07:09.517Z,95.80
2018-09-05T20:09:37.871Z,96.80
2018-09-05T20:12:05.994Z,98.30
2018-09-05T20:14:34.145Z,98.20
2018-09-05T20:17:02.278Z,98.50
2018-09-05T20:19:30.440Z,97.40
2018-09-05T20:21:58.546Z,97.50
2018-09-05T20:24:26.695Z,96.50
2018-09-05T20:26:54.847Z,96.80
2018-09-05T20:29:22.996Z,97.30
2018-09-05T20:31:51.182Z,98.40
2018-09-05T20:34:19.314Z,98.30
2018-09-05T20:36:47.430Z,97.80
2018-09-05T20:39:15.569Z,96.60
2018-09-05T20:41:43.686Z,96.70
2018-09-05T20:44:11.822Z,96.20
2018-09-05T20:46:40.036Z,96.40
2018-09-05T20:49:08.170Z,95.50
2018-09-05T20:51:36.287Z,95.70
2018-09-05T20:54:04.441Z,95.60
2018-09-05T20:56:32.982Z,95.60
2018-09-05T20:59:01.104Z,95.50
2018-09-05T21:01:29.238Z,95.20
2018-09-05T21:03:57.360Z,95.20
2018-09-05T21:06:25.507Z,95.30
2018-09-05T21:08:53.622Z,95.30
2018-09-05T21:11:21.763Z,95.30
2018-09-05T21:13:49.886Z,95.70
2018-09-05T21:16:18.023Z,95.80
2018-09-05T21:18:46.159Z,96.00
2018-09-05T21:21:14.380Z,96.00
2018-09-05T21:23:42.587Z,96.20
2018-09-05T21:26:10.718Z,96.40
2018-09-05T21:28:38.855Z,96.20
2018-09-05T21:31:06.994Z,96.60
2018-09-05T21:33:35.116Z,96.70
2018-09-05T21:36:03.280Z,96.90
2018-09-05T21:38:31.396Z,97.10
2018-09-05T21:40:59.522Z,97.30
2018-09-05T21:43:27.646Z,97.50
2018-09-05T21:45:55.779Z,97.60
2018-09-05T21:48:23.963Z,97.60
2018-09-05T21:50:52.037Z,98.00
2018-09-05T21:53:20.163Z,97.70
2018-09-05T21:55:48.307Z,98.20
2018-09-05T21:58:16.430Z,98.80
2018-09-05T22:00:44.558Z,98.70
2018-09-05T22:03:12.676Z,98.90
2018-09-05T22:05:40.818Z,99.00
2018-09-05T22:08:09.040Z,99.20
2018-09-05T22:10:37.180Z,99.60
2018-09-05T22:13:05.335Z,99.30
2018-09-05T22:15:37.807Z,99.60
2018-09-05T22:18:05.979Z,99.90
2018-09-05T22:20:34.218Z,99.90
2018-09-05T22:23:02.357Z,99.80
2018-09-05T22:25:30.579Z,99.90
2018-09-05T22:27:58.777Z,99.90
2018-09-05T22:30:26.909Z,99.90
2018-09-05T22:32:55.044Z,99.90
2018-09-05T22:35:23.191Z,99.90
2018-09-05T22:37:51.333Z,99.90
2018-09-05T22:40:19.443Z,99.90
2018-09-05T22:42:59.063Z,99.90
2018-09-05T22:45:38.670Z,99.90
2018-09-05T22:48:24.151Z,99.90
2018-09-05T22:52:16.241Z,99.90
2018-09-05T22:57:06.252Z,99.90
2018-09-05T23:01:54.167Z,99.90
2018-09-05T23:04:40.531Z,99.90
2018-09-05T23:08:22.308Z,99.90
2018-09-05T23:11:02.684Z,99.90
2018-09-05T23:13:42.495Z,99.90
2018-09-05T23:17:22.244Z,99.90
2018-09-05T23:20:02.396Z,99.90
2018-09-05T23:22:42.133Z,99.90
2018-09-05T23:25:10.268Z,99.90
2018-09-05T23:27:38.439Z,99.90
2018-09-05T23:30:06.852Z,99.90
2018-09-05T23:32:35.004Z,99.90
2018-09-05T23:35:03.140Z,99.90
2018-09-05T23:37:31.289Z,99.90
2018-09-05T23:39:59.439Z,99.90
2018-09-05T23:42:27.587Z,99.90
2018-09-05T23:44:55.714Z,99.90
2018-09-05T23:47:23.872Z,99.90
2018-09-05T23:49:52.020Z,99.90
2018-09-05T23:52:20.180Z,99.90
2018-09-05T23:54:48.358Z,99.90
2018-09-05T23:57:16.484Z,99.90
2018-09-05T23:59:44.631Z,99.90
